Time;durP1;ratioP1;P1;durP2;ratioP2;P2;SDS_P1;SDS_P2;PMS_P1;PMS_P2;Temp;Humidity;BMP_temperature;BMP_pressure;BME280_temperature;BME280_humidity;BME280_pressure;Samples;Min_cycle;Max_cycle;Signal;HPM_P1;HPM_P2
2022/11/15 00:01:44;;;;;;;8.03;5.93;;;9.60;99.90;;;;;;5074886;28;20174;-77
2022/11/15 00:04:10;;;;;;;7.13;5.63;;;9.70;99.90;;;;;;5074880;28;20178;-77
2022/11/15 00:06:36;;;;;;;7.77;5.50;;;9.70;99.90;;;;;;5075845;28;20198;-77
2022/11/15 00:09:02;;;;;;;10.83;5.87;;;9.70;99.90;;;;;;5076084;28;20175;-78
2022/11/15 00:11:28;;;;;;;9.07;6.33;;;9.70;99.90;;;;;;5076200;28;20199;-78
2022/11/15 00:13:57;;;;;;;7.63;5.63;;;9.70;99.90;;;;;;5075894;28;20518;-77
2022/11/15 00:16:24;;;;;;;8.43;6.10;;;9.70;99.90;;;;;;5074780;28;20642;-78
2022/11/15 00:18:50;;;;;;;7.77;5.83;;;9.70;99.90;;;;;;5075715;28;20665;-78
2022/11/15 00:21:16;;;;;;;9.60;6.50;;;9.80;99.90;;;;;;5074679;28;20179;-77
2022/11/15 00:23:42;;;;;;;10.47;6.67;;;9.80;99.90;;;;;;5074867;28;20266;-78
2022/11/15 00:26:12;;;;;;;8.70;6.23;;;9.80;99.90;;;;;;5074406;28;20245;-78
2022/11/15 00:28:38;;;;;;;10.57;6.03;;;9.80;99.90;;;;;;5073976;28;20641;-76
2022/11/15 00:31:05;;;;;;;8.27;6.00;;;9.80;99.90;;;;;;5074549;28;20205;-78
2022/11/15 00:33:32;;;;;;;8.53;5.57;;;9.90;99.90;;;;;;5075405;28;20190;-77
2022/11/15 00:36:06;;;;;;;8.77;6.67;;;9.90;99.90;;;;;;5074641;28;20203;-78
2022/11/15 00:38:37;;;;;;;9.23;6.37;;;9.90;99.90;;;;;;5074411;28;20775;-78
2022/11/15 00:41:03;;;;;;;11.17;6.70;;;10.00;99.90;;;;;;5074594;28;20175;-78
2022/11/15 00:43:29;;;;;;;7.70;6.03;;;9.90;99.90;;;;;;5074483;28;20207;-77
2022/11/15 00:45:55;;;;;;;9.03;6.33;;;10.00;99.90;;;;;;5075539;28;20608;-78
2022/11/15 00:48:23;;;;;;;8.10;6.20;;;10.00;99.90;;;;;;5075380;28;20523;-77
2022/11/15 00:50:49;;;;;;;7.63;5.50;;;10.00;99.90;;;;;;5074712;28;20200;-78
2022/11/15 00:53:15;;;;;;;10.53;6.47;;;10.00;99.90;;;;;;5075391;28;20185;-78
2022/11/15 00:55:41;;;;;;;9.77;6.10;;;10.00;99.90;;;;;;5074209;28;20281;-78
2022/11/15 00:58:06;;;;;;;9.77;5.77;;;10.10;99.90;;;;;;5075278;28;20650;-78
2022/11/15 01:00:32;;;;;;;7.97;5.90;;;10.10;99.90;;;;;;5075318;28;20266;-77
2022/11/15 01:02:57;;;;;;;8.00;6.63;;;10.10;99.90;;;;;;5074230;28;20179;-77
2022/11/15 01:05:23;;;;;;;9.50;6.13;;;10.20;99.90;;;;;;5075122;28;20178;-77
2022/11/15 01:07:55;;;;;;;12.63;6.30;;;10.20;99.90;;;;;;5073871;28;20240;-77
2022/11/15 01:10:22;;;;;;;10.37;5.77;;;10.20;99.90;;;;;;5075211;28;20186;-77
2022/11/15 01:12:49;;;;;;;9.03;5.93;;;10.20;99.90;;;;;;5074902;28;20202;-77
2022/11/15 01:15:15;;;;;;;8.03;6.37;;;10.30;99.90;;;;;;5074387;28;20175;-77
2022/11/15 01:17:40;;;;;;;9.47;6.00;;;10.30;99.90;;;;;;5074126;28;20573;-78
2022/11/15 01:20:07;;;;;;;8.57;6.17;;;10.40;99.90;;;;;;5074157;28;20166;-77
2022/11/15 01:22:32;;;;;;;7.13;5.90;;;10.40;99.90;;;;;;5073844;28;20167;-78
2022/11/15 01:24:58;;;;;;;8.47;6.20;;;10.40;99.90;;;;;;5073094;28;20248;-77
2022/11/15 01:27:24;;;;;;;8.33;5.87;;;10.40;99.90;;;;;;5074556;28;20279;-78
2022/11/15 01:29:49;;;;;;;9.37;6.23;;;10.50;99.90;;;;;;5073505;28;20710;-77
2022/11/15 01:32:15;;;;;;;10.40;5.83;;;10.60;99.90;;;;;;5074609;28;20171;-77
2022/11/15 01:34:41;;;;;;;9.57;5.97;;;10.60;99.90;;;;;;5072940;28;20175;-77
2022/11/15 01:37:07;;;;;;;9.20;6.10;;;10.60;99.90;;;;;;5074059;28;20206;-78
2022/11/15 01:39:32;;;;;;;8.00;5.27;;;10.60;99.90;;;;;;5073010;28;20198;-78
2022/11/15 01:41:58;;;;;;;7.27;5.53;;;10.60;99.90;;;;;;5072983;28;20241;-78
2022/11/15 01:44:43;;;;;;;6.97;5.40;;;10.60;99.90;;;;;;5074575;28;20178;-78
2022/11/15 01:47:14;;;;;;;9.97;5.97;;;10.60;99.90;;;;;;5073638;28;20707;-78
2022/11/15 01:49:48;;;;;;;7.53;5.57;;;10.60;99.90;;;;;;5073894;28;20159;-78
2022/11/15 01:52:18;;;;;;;7.60;4.63;;;10.60;99.90;;;;;;5074022;28;20175;-78
2022/11/15 01:54:45;;;;;;;5.90;5.33;;;10.60;99.90;;;;;;5074080;28;20195;-78
2022/11/15 01:57:12;;;;;;;7.23;5.70;;;10.60;99.90;;;;;;5073137;28;20211;-78
2022/11/15 01:59:41;;;;;;;6.67;5.17;;;10.70;99.90;;;;;;5073478;28;20171;-78
2022/11/15 02:02:07;;;;;;;10.23;5.57;;;10.70;99.90;;;;;;5074593;28;20547;-78
2022/11/15 02:04:39;;;;;;;6.53;5.07;;;10.70;99.90;;;;;;5073399;28;20175;-77
2022/11/15 02:07:07;;;;;;;8.20;5.50;;;10.70;99.90;;;;;;5074195;28;20281;-78
2022/11/15 02:09:32;;;;;;;6.40;5.00;;;10.70;99.90;;;;;;5074272;28;20225;-78
2022/11/15 02:11:59;;;;;;;5.70;4.50;;;10.70;99.90;;;;;;5072753;28;20182;-78
2022/11/15 02:14:27;;;;;;;7.00;4.93;;;10.80;99.90;;;;;;5072832;28;20448;-78
2022/11/15 02:17:24;;;;;;;11.03;6.00;;;10.80;99.90;;;;;;5073997;28;20210;-78
2022/11/15 02:20:29;;;;;;;6.30;4.90;;;10.80;99.90;;;;;;5073881;28;20152;-80
2022/11/15 02:23:08;;;;;;;5.67;4.77;;;10.80;99.90;;;;;;5073722;28;20198;-77
2022/11/15 02:25:43;;;;;;;7.77;4.70;;;10.80;99.90;;;;;;5073655;28;20195;-77
2022/11/15 02:28:43;;;;;;;6.10;4.90;;;10.80;99.90;;;;;;5073185;28;20286;-78
2022/11/15 02:31:24;;;;;;;9.87;5.30;;;10.80;99.90;;;;;;5073497;28;20174;-77
2022/11/15 02:34:12;;;;;;;7.10;4.90;;;10.80;99.90;;;;;;5073794;28;20163;-78
2022/11/15 02:36:38;;;;;;;5.47;4.23;;;10.80;99.90;;;;;;5026722;28;20566;-78
2022/11/15 02:39:31;;;;;;;7.20;5.10;;;10.80;99.90;;;;;;5074022;28;20258;-78
2022/11/15 02:45:21;;;;;;;7.00;4.80;;;10.90;99.90;;;;;;5073783;28;20166;-78
2022/11/15 02:47:50;;;;;;;9.53;5.17;;;10.90;99.90;;;;;;5076011;28;20178;-78
2022/11/15 02:50:23;;;;;;;6.60;4.60;;;10.90;99.90;;;;;;5076591;28;20549;-77
2022/11/15 02:52:49;;;;;;;7.10;5.23;;;10.90;99.90;;;;;;5076231;28;20183;-77
2022/11/15 02:55:31;;;;;;;6.10;5.00;;;10.90;99.90;;;;;;5077640;28;20171;-78
2022/11/15 02:58:15;;;;;;;7.87;4.83;;;11.00;99.90;;;;;;5077740;28;20183;-77
2022/11/15 03:00:59;;;;;;;7.13;5.07;;;11.00;99.90;;;;;;5077584;28;20182;-78
2022/11/15 03:03:51;;;;;;;9.57;4.87;;;11.00;99.90;;;;;;5077180;28;20179;-78
2022/11/15 03:06:25;;;;;;;6.93;5.40;;;11.10;99.90;;;;;;5077156;28;20697;-78
2022/11/15 03:09:15;;;;;;;9.43;5.60;;;11.10;99.90;;;;;;5076769;28;20182;-78
2022/11/15 03:11:48;;;;;;;8.97;5.37;;;11.10;99.90;;;;;;5075956;28;20175;-78
2022/11/15 03:14:30;;;;;;;8.27;5.30;;;11.10;99.90;;;;;;5075820;28;20620;-78
2022/11/15 03:17:11;;;;;;;9.37;4.77;;;11.10;99.90;;;;;;5075523;28;20665;-78
2022/11/15 03:19:46;;;;;;;7.90;5.27;;;11.20;99.90;;;;;;5076703;28;20617;-78
2022/11/15 03:22:16;;;;;;;7.53;5.53;;;11.10;99.90;;;;;;5075047;28;20197;-78
2022/11/15 03:24:43;;;;;;;6.20;4.90;;;11.20;99.90;;;;;;5076735;28;20527;-78
2022/11/15 03:27:12;;;;;;;11.60;5.33;;;11.20;99.90;;;;;;5075625;28;20214;-78
2022/11/15 03:29:42;;;;;;;7.80;5.67;;;11.20;99.90;;;;;;5075550;28;20182;-78
2022/11/15 03:32:12;;;;;;;8.10;5.93;;;11.30;99.90;;;;;;5076858;28;20171;-78
2022/11/15 03:34:50;;;;;;;6.70;5.33;;;11.20;99.90;;;;;;5076721;28;20224;-78
2022/11/15 03:37:19;;;;;;;7.17;5.50;;;11.30;99.90;;;;;;5076757;28;20206;-78
2022/11/15 03:39:45;;;;;;;7.50;5.30;;;11.30;99.90;;;;;;5075107;28;20181;-78
2022/11/15 03:42:48;;;;;;;9.27;5.33;;;11.30;99.90;;;;;;5076532;28;20171;-78
2022/11/15 03:45:27;;;;;;;9.13;5.30;;;11.40;99.90;;;;;;5034335;28;20186;-78
2022/11/15 03:48:05;;;;;;;8.57;5.13;;;11.40;99.90;;;;;;5076849;28;20258;-78
2022/11/15 03:50:31;;;;;;;9.07;5.10;;;11.40;99.90;;;;;;5076535;28;20178;-78
2022/11/15 03:52:58;;;;;;;8.50;5.03;;;11.40;99.90;;;;;;5076259;28;20193;-78
2022/11/15 03:55:24;;;;;;;7.73;4.97;;;11.40;99.90;;;;;;5074655;28;20181;-78
2022/11/15 03:57:54;;;;;;;8.27;5.00;;;11.40;99.90;;;;;;5073956;28;20668;-77
2022/11/15 04:00:19;;;;;;;6.37;4.80;;;11.50;99.90;;;;;;5075162;28;20159;-78
2022/11/15 04:02:45;;;;;;;7.33;4.77;;;11.50;99.90;;;;;;5074861;28;20206;-78
2022/11/15 04:05:11;;;;;;;6.53;5.10;;;11.50;99.90;;;;;;5076321;28;20268;-77
2022/11/15 04:07:36;;;;;;;6.30;4.67;;;11.50;99.90;;;;;;5075857;28;20198;-78
2022/11/15 04:10:03;;;;;;;5.13;4.43;;;11.50;99.90;;;;;;5074908;28;20236;-78
2022/11/15 04:12:33;;;;;;;6.17;4.87;;;11.50;99.90;;;;;;5075889;28;20198;-77
2022/11/15 04:15:07;;;;;;;5.33;4.83;;;11.50;99.90;;;;;;5075855;28;20163;-78
2022/11/15 04:17:45;;;;;;;6.20;4.77;;;11.60;99.90;;;;;;5074463;28;20203;-78
2022/11/15 04:25:55;;;;;;;9.27;4.70;;;11.60;99.90;;;;;;5075708;28;20687;-78
2022/11/15 04:28:21;;;;;;;5.20;4.13;;;11.60;99.90;;;;;;5075907;28;20178;-78
2022/11/15 04:30:47;;;;;;;7.60;4.13;;;11.60;99.90;;;;;;5074387;28;20718;-77
2022/11/15 04:33:13;;;;;;;6.10;4.00;;;11.60;99.90;;;;;;5075422;28;20659;-78
2022/11/15 04:35:38;;;;;;;5.87;4.40;;;11.60;99.90;;;;;;5074032;28;20301;-78
2022/11/15 04:38:06;;;;;;;6.30;4.63;;;11.70;99.90;;;;;;5074159;28;20229;-78
2022/11/15 04:40:32;;;;;;;8.37;4.50;;;11.70;99.90;;;;;;5075181;28;20182;-78
2022/11/15 04:42:58;;;;;;;5.73;4.23;;;11.70;99.90;;;;;;5073987;28;20274;-78
2022/11/15 04:45:23;;;;;;;5.33;3.77;;;11.70;99.90;;;;;;5073922;28;20175;-78
2022/11/15 04:47:49;;;;;;;6.40;3.80;;;11.70;99.90;;;;;;5075168;28;20171;-78
2022/11/15 04:50:15;;;;;;;6.20;4.40;;;11.70;99.90;;;;;;5074932;28;20174;-78
2022/11/15 04:52:51;;;;;;;6.40;4.07;;;11.70;99.90;;;;;;5075196;28;20183;-78
2022/11/15 04:55:16;;;;;;;5.30;3.47;;;11.80;99.90;;;;;;5073892;28;20175;-78
2022/11/15 04:57:42;;;;;;;4.13;3.63;;;11.70;99.90;;;;;;5075033;28;20209;-78
2022/11/15 05:00:11;;;;;;;6.73;4.20;;;11.80;99.90;;;;;;5074991;28;20186;-78
2022/11/15 05:05:23;;;;;;;6.03;3.57;;;11.80;99.90;;;;;;5074683;28;20159;-78
2022/11/15 05:07:48;;;;;;;5.23;3.63;;;11.80;99.90;;;;;;5073470;28;20179;-78
2022/11/15 05:10:14;;;;;;;4.23;3.63;;;11.80;99.90;;;;;;5073887;28;20189;-77
2022/11/15 05:12:39;;;;;;;7.57;4.03;;;11.80;99.90;;;;;;5073233;28;20232;-78
2022/11/15 05:15:06;;;;;;;5.33;3.53;;;11.80;99.90;;;;;;5075027;28;20201;-78
2022/11/15 05:17:31;;;;;;;4.50;3.53;;;11.80;99.90;;;;;;5074289;28;20763;-78
2022/11/15 05:19:57;;;;;;;4.30;3.33;;;11.90;99.90;;;;;;5072828;28;20202;-78
2022/11/15 05:22:22;;;;;;;4.63;3.53;;;11.80;99.90;;;;;;5074502;28;20590;-78
2022/11/15 05:24:48;;;;;;;6.50;3.97;;;11.80;99.90;;;;;;5072939;28;20175;-78
2022/11/15 05:27:14;;;;;;;5.47;3.60;;;11.80;99.90;;;;;;5072982;28;20225;-77
2022/11/15 05:29:39;;;;;;;4.67;4.13;;;11.80;99.90;;;;;;5099750;22;20283;-79
2022/11/15 05:32:08;;;;;;;5.70;4.17;;;11.80;99.90;;;;;;5080711;28;20179;-79
2022/11/15 05:34:33;;;;;;;5.63;4.17;;;11.80;99.90;;;;;;5081523;28;20178;-80
2022/11/15 05:36:59;;;;;;;8.77;4.00;;;11.80;99.90;;;;;;5080562;28;20178;-79
2022/11/15 05:39:25;;;;;;;5.57;3.83;;;11.80;99.90;;;;;;5084236;28;20167;-79
2022/11/15 05:42:09;;;;;;;5.20;4.20;;;11.80;99.90;;;;;;5082853;28;20183;-79
2022/11/15 05:44:36;;;;;;;6.33;4.00;;;11.80;99.90;;;;;;5080891;28;20155;-79
2022/11/15 05:47:03;;;;;;;6.63;4.40;;;11.80;99.90;;;;;;5079569;28;20167;-79
2022/11/15 05:49:34;;;;;;;4.33;3.93;;;11.80;99.90;;;;;;5080819;28;20163;-79
2022/11/15 05:51:59;;;;;;;7.60;4.27;;;11.80;99.90;;;;;;5076664;28;20177;-79
2022/11/15 05:54:25;;;;;;;6.57;4.17;;;11.80;99.90;;;;;;5075342;28;20234;-80
2022/11/15 05:56:52;;;;;;;4.77;4.23;;;11.70;99.90;;;;;;5079426;28;20170;-80
2022/11/15 05:59:18;;;;;;;6.73;4.60;;;11.80;99.90;;;;;;5080412;28;20179;-79
2022/11/15 06:01:44;;;;;;;6.73;4.47;;;11.80;99.90;;;;;;5081376;28;20198;-79
2022/11/15 06:04:09;;;;;;;4.43;4.03;;;11.80;99.90;;;;;;5082218;28;20171;-79
2022/11/15 06:06:35;;;;;;;5.03;4.17;;;11.80;99.90;;;;;;5080271;28;20203;-80
2022/11/15 06:09:00;;;;;;;6.73;4.70;;;11.80;99.90;;;;;;5081726;28;20174;-80
2022/11/15 06:11:26;;;;;;;5.03;4.33;;;11.80;99.90;;;;;;5081143;28;20217;-79
2022/11/15 06:13:51;;;;;;;5.13;4.43;;;11.70;99.90;;;;;;5081391;28;20175;-80
2022/11/15 06:16:17;;;;;;;4.93;4.37;;;11.80;99.90;;;;;;5082493;28;20187;-80
2022/11/15 06:18:43;;;;;;;5.40;4.27;;;11.80;99.90;;;;;;5081555;28;20224;-79
2022/11/15 06:21:08;;;;;;;5.03;4.00;;;11.80;99.90;;;;;;5080892;28;20202;-80
2022/11/15 06:23:35;;;;;;;8.03;4.00;;;11.70;99.90;;;;;;5079985;28;20194;-79
2022/11/15 06:26:01;;;;;;;7.53;4.77;;;11.80;99.90;;;;;;5079957;28;20570;-80
2022/11/15 06:28:31;;;;;;;5.10;4.20;;;11.80;99.90;;;;;;5082120;28;20190;-80
2022/11/15 06:31:03;;;;;;;4.53;3.90;;;11.80;99.90;;;;;;5084826;28;20211;-80
2022/11/15 06:33:29;;;;;;;6.03;4.13;;;11.80;99.90;;;;;;5084173;28;20179;-80
2022/11/15 06:35:54;;;;;;;6.80;4.40;;;11.80;99.90;;;;;;5084188;28;20189;-80
2022/11/15 06:38:20;;;;;;;4.97;4.30;;;11.80;99.90;;;;;;5084217;28;20195;-80
2022/11/15 06:40:46;;;;;;;4.97;3.70;;;11.80;99.90;;;;;;5085837;28;20656;-80
2022/11/15 06:43:11;;;;;;;4.80;3.90;;;11.80;99.90;;;;;;5082574;28;20274;-80
2022/11/15 06:45:37;;;;;;;4.50;3.43;;;11.80;99.90;;;;;;5086141;28;20225;-79
2022/11/15 06:48:02;;;;;;;4.97;3.87;;;11.80;99.90;;;;;;5085122;28;20190;-80
2022/11/15 06:50:28;;;;;;;5.40;3.70;;;11.80;99.90;;;;;;5084436;28;20205;-79
2022/11/15 06:52:54;;;;;;;6.53;4.07;;;11.80;99.90;;;;;;5086887;28;20179;-80
2022/11/15 06:55:20;;;;;;;5.90;3.90;;;11.70;99.90;;;;;;5086376;28;20540;-81
2022/11/15 06:57:51;;;;;;;7.77;4.20;;;11.80;99.90;;;;;;5086927;28;20190;-80
2022/11/15 07:00:19;;;;;;;5.07;3.60;;;11.70;99.90;;;;;;5086338;28;20302;-80
2022/11/15 07:02:45;;;;;;;4.60;3.63;;;11.70;99.90;;;;;;5087538;28;20178;-80
2022/11/15 07:05:11;;;;;;;4.33;3.70;;;11.80;99.90;;;;;;5085536;28;20652;-82
2022/11/15 07:07:36;;;;;;;6.53;4.10;;;11.80;99.90;;;;;;5083104;28;20191;-81
2022/11/15 07:10:02;;;;;;;3.97;3.57;;;11.80;99.90;;;;;;5084622;28;20287;-81
2022/11/15 07:12:28;;;;;;;3.90;3.47;;;11.80;99.90;;;;;;5087453;28;20163;-80
2022/11/15 07:14:53;;;;;;;4.80;3.40;;;11.80;99.90;;;;;;5096941;28;20206;-82
2022/11/15 07:17:19;;;;;;;7.17;3.53;;;11.80;99.90;;;;;;5096380;28;20225;-81
2022/11/15 07:19:44;;;;;;;4.90;3.73;;;11.80;99.90;;;;;;5080732;28;20171;-81
2022/11/15 07:22:10;;;;;;;3.90;3.23;;;11.80;99.90;;;;;;5081470;28;20175;-81
2022/11/15 07:24:35;;;;;;;4.03;3.20;;;11.80;99.90;;;;;;5080953;28;20175;-81
2022/11/15 07:27:01;;;;;;;4.80;3.80;;;11.80;99.90;;;;;;5079280;28;20609;-82
2022/11/15 07:29:26;;;;;;;4.53;3.37;;;11.80;99.90;;;;;;5080532;28;20224;-81
2022/11/15 07:31:52;;;;;;;4.20;3.20;;;11.80;99.90;;;;;;5079216;28;20222;-81
2022/11/15 07:34:17;;;;;;;4.10;3.23;;;11.80;99.90;;;;;;5082686;28;20171;-81
2022/11/15 07:36:43;;;;;;;4.63;2.93;;;11.90;99.90;;;;;;5082930;28;20182;-81
2022/11/15 07:39:09;;;;;;;4.80;2.90;;;11.90;99.90;;;;;;5085395;28;20207;-81
2022/11/15 07:41:35;;;;;;;4.63;2.97;;;11.80;99.90;;;;;;5084737;28;20201;-82
2022/11/15 07:44:01;;;;;;;5.00;3.07;;;11.90;99.90;;;;;;5081669;28;20202;-81
2022/11/15 07:46:27;;;;;;;4.63;3.03;;;11.90;99.90;;;;;;5083342;28;20190;-81
2022/11/15 07:48:52;;;;;;;3.13;2.40;;;11.90;99.90;;;;;;5084115;28;20637;-82
2022/11/15 07:51:18;;;;;;;4.83;2.73;;;12.00;99.90;;;;;;5084265;28;20190;-81
2022/11/15 07:53:44;;;;;;;3.90;2.63;;;11.90;99.90;;;;;;5081855;28;20529;-81
2022/11/15 07:56:10;;;;;;;4.97;2.13;;;11.90;99.90;;;;;;5084119;28;20590;-80
2022/11/15 07:58:36;;;;;;;2.03;1.77;;;12.00;99.90;;;;;;5084291;28;20187;-81
2022/11/15 08:01:06;;;;;;;1.80;1.40;;;12.00;99.90;;;;;;5082768;28;20195;-82
2022/11/15 08:03:32;;;;;;;1.70;1.50;;;11.90;99.90;;;;;;5082187;28;20188;-83
2022/11/15 08:05:58;;;;;;;2.07;1.67;;;11.90;99.90;;;;;;5084105;28;20182;-81
2022/11/15 08:08:24;;;;;;;3.57;1.50;;;11.90;99.90;;;;;;5083868;28;20176;-81
2022/11/15 08:10:50;;;;;;;1.53;1.33;;;11.90;99.90;;;;;;5083881;28;20286;-81
2022/11/15 08:13:15;;;;;;;1.80;1.40;;;11.80;99.90;;;;;;5081482;28;20175;-81
2022/11/15 08:15:41;;;;;;;2.43;1.40;;;11.80;99.90;;;;;;5080732;28;20171;-81
2022/11/15 08:18:11;;;;;;;2.63;1.70;;;11.70;99.90;;;;;;5082355;28;20206;-81
2022/11/15 08:20:37;;;;;;;2.27;1.70;;;11.70;99.90;;;;;;5083420;28;20259;-81
2022/11/15 08:23:04;;;;;;;2.80;1.70;;;11.70;99.90;;;;;;5082138;28;20657;-81
2022/11/15 08:25:31;;;;;;;4.00;1.57;;;11.70;99.90;;;;;;5082882;28;20179;-81
2022/11/15 08:27:59;;;;;;;2.50;1.70;;;11.70;99.90;;;;;;5081316;28;20205;-81
2022/11/15 08:30:25;;;;;;;3.73;2.07;;;11.70;99.90;;;;;;5082603;28;20219;-81
2022/11/15 08:32:52;;;;;;;2.00;1.80;;;11.60;99.90;;;;;;5082065;28;20248;-81
2022/11/15 08:35:19;;;;;;;2.27;2.03;;;11.60;99.90;;;;;;5083009;28;20221;-81
2022/11/15 08:37:44;;;;;;;3.73;3.30;;;11.60;99.90;;;;;;5084187;28;20225;-81
2022/11/15 08:40:10;;;;;;;6.60;3.00;;;11.60;99.90;;;;;;5081329;28;20194;-81
2022/11/15 08:42:36;;;;;;;4.97;2.63;;;11.60;99.90;;;;;;5081024;28;20265;-81
2022/11/15 08:45:02;;;;;;;2.87;2.43;;;11.60;99.90;;;;;;5080758;28;20243;-80
2022/11/15 08:47:28;;;;;;;3.57;2.40;;;11.60;99.90;;;;;;5082052;28;20543;-81
2022/11/15 08:49:53;;;;;;;3.13;2.07;;;11.60;99.90;;;;;;5083672;28;20229;-81
2022/11/15 08:52:19;;;;;;;4.60;1.83;;;11.60;99.90;;;;;;5081979;28;20183;-81
2022/11/15 08:54:44;;;;;;;1.73;1.60;;;11.60;99.90;;;;;;5082806;28;20182;-81
2022/11/15 08:57:10;;;;;;;2.10;1.40;;;11.60;99.90;;;;;;5084285;28;20217;-82
2022/11/15 08:59:36;;;;;;;1.50;1.37;;;11.60;99.90;;;;;;5082137;28;20179;-82
2022/11/15 09:02:03;;;;;;;1.70;1.50;;;11.60;99.90;;;;;;5083222;28;20637;-80
2022/11/15 09:04:29;;;;;;;3.87;1.77;;;11.60;99.90;;;;;;5082310;28;20595;-81
2022/11/15 09:06:55;;;;;;;4.03;1.87;;;11.60;99.90;;;;;;5083871;28;20603;-81
2022/11/15 09:09:20;;;;;;;2.43;2.17;;;11.70;99.90;;;;;;5083341;28;20179;-81
2022/11/15 09:11:46;;;;;;;4.27;1.90;;;11.70;99.90;;;;;;5082563;28;20191;-81
2022/11/15 09:14:12;;;;;;;2.80;2.50;;;11.70;99.90;;;;;;5081204;28;20186;-81
2022/11/15 09:16:38;;;;;;;6.57;2.70;;;11.80;99.90;;;;;;5079954;28;20171;-81
2022/11/15 09:19:03;;;;;;;3.60;2.40;;;11.80;99.90;;;;;;5082387;28;20260;-81
2022/11/15 09:21:30;;;;;;;2.77;2.07;;;11.80;99.90;;;;;;5082201;28;20202;-81
2022/11/15 09:23:55;;;;;;;4.50;2.40;;;11.80;99.90;;;;;;5082596;28;20194;-81
2022/11/15 09:26:21;;;;;;;4.80;2.37;;;11.80;99.90;;;;;;5083550;28;20664;-81
2022/11/15 09:28:47;;;;;;;5.73;2.50;;;11.80;99.90;;;;;;5080615;28;20632;-82
2022/11/15 09:31:12;;;;;;;3.33;1.90;;;11.90;99.90;;;;;;5082919;28;20206;-81
2022/11/15 09:33:38;;;;;;;2.30;1.90;;;11.80;99.90;;;;;;5081653;28;20182;-81
2022/11/15 09:36:06;;;;;;;3.97;1.90;;;11.90;99.90;;;;;;5082625;28;20210;-82
2022/11/15 09:38:33;;;;;;;2.73;1.70;;;11.90;99.90;;;;;;5083294;28;20195;-81
2022/11/15 09:41:11;;;;;;;1.90;1.40;;;11.90;99.90;;;;;;5082984;28;20183;-81
2022/11/15 09:43:58;;;;;;;2.47;1.30;;;11.90;99.90;;;;;;5081180;28;20159;-81
2022/11/15 09:46:35;;;;;;;3.23;1.33;;;11.90;99.90;;;;;;5083788;28;20518;-82
2022/11/15 09:49:01;;;;;;;2.47;1.20;;;12.00;99.90;;;;;;5082188;28;20188;-81
2022/11/15 09:51:32;;;;;;;2.80;1.47;;;12.00;99.90;;;;;;5081009;28;20199;-82
2022/11/15 09:54:07;;;;;;;2.50;1.50;;;12.00;99.90;;;;;;5082989;28;20170;-82
2022/11/15 09:56:37;;;;;;;1.90;1.10;;;12.00;99.90;;;;;;5082575;28;20194;-82
2022/11/15 09:59:17;;;;;;;2.13;1.10;;;12.00;99.90;;;;;;5082449;28;20202;-82
2022/11/15 10:01:58;;;;;;;2.00;1.30;;;12.00;99.90;;;;;;5082885;28;20186;-82
2022/11/15 10:04:25;;;;;;;5.57;1.30;;;12.00;99.90;;;;;;5083575;28;20179;-82
2022/11/15 10:07:10;;;;;;;2.13;0.93;;;12.00;99.90;;;;;;5081742;28;20595;-82
2022/11/15 10:10:03;;;;;;;2.80;1.03;;;12.00;99.90;;;;;;5032081;28;20236;-81
2022/11/15 10:12:29;;;;;;;2.03;1.20;;;12.10;99.90;;;;;;5045431;28;20584;-81
2022/11/15 10:15:04;;;;;;;1.70;0.90;;;12.10;99.90;;;;;;5082331;28;20182;-82
2022/11/15 10:17:56;;;;;;;2.63;1.23;;;12.10;99.90;;;;;;5082880;28;20202;-82
2022/11/15 10:20:25;;;;;;;1.93;1.00;;;12.20;99.90;;;;;;5083239;28;20191;-81
2022/11/15 10:23:05;;;;;;;1.87;0.97;;;12.20;99.90;;;;;;5084021;28;20212;-82
2022/11/15 10:25:33;;;;;;;1.23;0.87;;;12.20;99.90;;;;;;5086933;28;20159;-79
2022/11/15 10:28:09;;;;;;;3.83;1.10;;;12.20;99.90;;;;;;5094264;28;20225;-80
2022/11/15 10:30:47;;;;;;;1.67;0.97;;;12.20;99.90;;;;;;5091891;28;20226;-81
2022/11/15 10:33:34;;;;;;;2.57;0.90;;;12.20;99.90;;;;;;5079723;28;20171;-81
2022/11/15 10:36:08;;;;;;;1.60;1.00;;;12.30;99.90;;;;;;5078908;28;20171;-81
2022/11/15 10:38:49;;;;;;;3.03;0.80;;;12.30;99.90;;;;;;5078999;28;20206;-81
2022/11/15 10:41:20;;;;;;;1.53;0.70;;;12.30;99.90;;;;;;5078842;28;20551;-81
2022/11/15 10:44:03;;;;;;;3.00;0.97;;;12.30;99.90;;;;;;5079851;28;20220;-81
2022/11/15 10:46:28;;;;;;;5.27;1.53;;;12.40;99.90;;;;;;5080569;28;20167;-81
2022/11/15 10:49:14;;;;;;;1.27;0.83;;;12.40;99.90;;;;;;5080681;28;20221;-81
2022/11/15 10:51:44;;;;;;;2.00;0.80;;;12.50;99.90;;;;;;5079114;28;20577;-81
2022/11/15 10:54:13;;;;;;;2.17;1.00;;;12.50;99.90;;;;;;5080861;28;20163;-81
2022/11/15 10:56:40;;;;;;;2.87;1.10;;;12.50;99.90;;;;;;5078580;28;20232;-81
2022/11/15 10:59:17;;;;;;;1.53;0.90;;;12.60;99.90;;;;;;5078524;28;20214;-82
2022/11/15 11:01:48;;;;;;;1.90;0.90;;;12.60;99.90;;;;;;5080221;28;20190;-82
2022/11/15 11:04:14;;;;;;;4.37;0.80;;;12.60;99.90;;;;;;5079588;28;20178;-82
2022/11/15 11:07:19;;;;;;;2.87;0.97;;;12.60;99.90;;;;;;5080469;28;20182;-81
2022/11/15 11:09:44;;;;;;;1.33;0.50;;;12.70;99.90;;;;;;5085138;28;20174;-82
2022/11/15 11:12:11;;;;;;;2.23;0.80;;;12.70;99.90;;;;;;5082734;28;20174;-82
2022/11/15 11:14:39;;;;;;;2.83;0.90;;;12.80;1.00;;;;;;5082971;28;20660;-81
2022/11/15 11:17:32;;;;;;;1.40;0.70;;;12.80;1.00;;;;;;5084035;28;20171;-81
2022/11/15 11:20:04;;;;;;;3.13;1.00;;;12.80;1.00;;;;;;5084763;28;20212;-81
2022/11/15 11:23:02;;;;;;;1.63;0.70;;;12.90;1.00;;;;;;5082776;28;20561;-82
2022/11/15 11:25:40;;;;;;;1.00;0.60;;;13.00;1.00;;;;;;5081406;28;20159;-82
2022/11/15 11:28:23;;;;;;;1.60;0.90;;;13.00;1.00;;;;;;5083622;28;20184;-82
2022/11/15 11:31:04;;;;;;;2.77;0.80;;;13.00;99.90;;;;;;5108389;22;20218;-77
2022/11/15 11:33:43;;;;;;;1.73;0.70;;;13.00;99.90;;;;;;5079737;28;20212;-78
2022/11/15 11:36:47;;;;;;;2.53;0.60;;;13.00;99.90;;;;;;5080007;28;20159;-79
2022/11/15 11:39:24;;;;;;;4.30;0.87;;;13.00;99.90;;;;;;5077392;28;20213;-77
2022/11/15 11:42:03;;;;;;;3.13;0.90;;;13.00;99.90;;;;;;5079121;28;20703;-77
2022/11/15 11:44:54;;;;;;;2.47;0.93;;;13.00;99.90;;;;;;5080431;28;20594;-79
2022/11/15 11:47:24;;;;;;;4.60;0.87;;;13.00;99.90;;;;;;5081668;28;20197;-79
2022/11/15 11:49:58;;;;;;;2.40;0.80;;;13.00;99.90;;;;;;5089302;28;20175;-79
2022/11/15 11:52:33;;;;;;;3.17;0.70;;;13.10;99.90;;;;;;5096170;28;20170;-78
2022/11/15 11:54:59;;;;;;;3.93;0.60;;;13.00;99.90;;;;;;5094503;28;20449;-79
2022/11/15 11:57:37;;;;;;;3.73;0.87;;;13.00;99.90;;;;;;5094410;28;20214;-79
2022/11/15 12:00:21;;;;;;;1.13;0.80;;;13.00;99.90;;;;;;5094651;28;20694;-79
2022/11/15 12:02:59;;;;;;;3.40;0.70;;;13.10;99.90;;;;;;5086168;28;20174;-79
2022/11/15 12:05:28;;;;;;;1.97;0.77;;;13.00;99.90;;;;;;5083764;28;20179;-79
2022/11/15 12:08:01;;;;;;;1.60;0.80;;;13.10;99.90;;;;;;5083782;28;20189;-79
2022/11/15 12:10:32;;;;;;;1.07;0.70;;;13.10;99.90;;;;;;5084157;28;20688;-79
2022/11/15 12:13:06;;;;;;;3.10;0.70;;;13.10;99.90;;;;;;5083397;28;20182;-79
2022/11/15 12:15:39;;;;;;;1.77;0.60;;;13.10;99.90;;;;;;5083831;28;20565;-79
2022/11/15 12:18:05;;;;;;;2.47;0.60;;;13.10;99.90;;;;;;5082979;28;20199;-79
2022/11/15 12:20:38;;;;;;;1.70;0.63;;;13.20;99.90;;;;;;5083551;28;20187;-79
2022/11/15 12:23:19;;;;;;;0.97;0.57;;;13.20;88.60;;;;;;5084625;28;20163;-79
2022/11/15 12:25:51;;;;;;;1.77;0.77;;;13.20;48.50;;;;;;5083177;28;20240;-79
2022/11/15 12:28:40;;;;;;;2.30;0.50;;;13.20;41.20;;;;;;5083265;28;20641;-79
2022/11/15 12:31:16;;;;;;;1.00;0.60;;;13.20;10.80;;;;;;5083631;28;20237;-79
2022/11/15 12:33:44;;;;;;;2.23;0.70;;;13.20;1.00;;;;;;5084318;28;20155;-79
2022/11/15 12:36:20;;;;;;;1.83;0.77;;;13.20;1.00;;;;;;5085799;28;20175;-79
2022/11/15 12:39:04;;;;;;;2.03;0.93;;;13.20;1.00;;;;;;5086176;28;20193;-79
2022/11/15 12:41:32;;;;;;;2.17;1.10;;;13.30;7.30;;;;;;5084805;28;20217;-78
2022/11/15 12:44:01;;;;;;;1.70;0.87;;;13.30;23.30;;;;;;5083324;28;20663;-79
2022/11/15 12:46:29;;;;;;;2.70;0.70;;;13.40;1.00;;;;;;5083460;28;20174;-79
2022/11/15 12:49:02;;;;;;;1.50;0.87;;;13.40;1.00;;;;;;5083728;28;20209;-79
2022/11/15 12:51:43;;;;;;;2.83;0.50;;;13.40;19.20;;;;;;5082782;28;20223;-78
2022/11/15 12:54:24;;;;;;;3.53;0.83;;;13.50;63.80;;;;;;5078996;28;20175;-77
2022/11/15 12:57:07;;;;;;;0.83;0.53;;;13.50;6.00;;;;;;5076289;28;20171;-77
2022/11/15 13:00:02;;;;;;;3.37;0.80;;;13.50;32.70;;;;;;5076676;28;20656;-77
2022/11/15 13:02:41;;;;;;;1.17;0.60;;;13.50;71.00;;;;;;5074430;28;20250;-78
2022/11/15 13:05:17;;;;;;;1.50;0.90;;;13.50;99.90;;;;;;5075020;28;20221;-77
2022/11/15 13:07:43;;;;;;;2.97;0.80;;;13.50;99.90;;;;;;5076340;28;20249;-77
2022/11/15 13:10:12;;;;;;;3.37;0.70;;;13.50;99.90;;;;;;5074389;28;20206;-78
2022/11/15 13:12:40;;;;;;;2.80;0.53;;;13.60;99.90;;;;;;5075949;28;20274;-78
2022/11/15 13:15:11;;;;;;;1.40;0.67;;;13.60;99.90;;;;;;5075249;28;20767;-78
2022/11/15 13:17:41;;;;;;;3.40;0.67;;;13.70;99.90;;;;;;5075886;28;20608;-78